sensor_id;sensor_type;location;lat;lon;timestamp;P1;durP1;ratioP1;P2;durP2;ratioP2
42282;SDS011;28237;47.954;21.730;2022-09-12T00:00:26;3.35;;;1.10;;
42282;SDS011;28237;47.954;21.730;2022-09-12T00:02:52;1.33;;;0.98;;
42282;SDS011;28237;47.954;21.730;2022-09-12T00:05:18;2.30;;;1.35;;
42282;SDS011;28237;47.954;21.730;2022-09-12T00:07:43;2.88;;;1.20;;
42282;SDS011;28237;47.954;21.730;2022-09-12T00:10:08;1.97;;;1.00;;
42282;SDS011;28237;47.954;21.730;2022-09-12T00:12:33;1.20;;;1.10;;
42282;SDS011;28237;47.954;21.730;2022-09-12T00:14:59;1.90;;;1.55;;
42282;SDS011;28237;47.954;21.730;2022-09-12T00:17:24;4.63;;;1.20;;
42282;SDS011;28237;47.954;21.730;2022-09-12T00:19:49;3.03;;;1.77;;
42282;SDS011;28237;47.954;21.730;2022-09-12T00:22:14;3.37;;;1.70;;
42282;SDS011;28237;47.954;21.730;2022-09-12T00:24:40;1.57;;;1.40;;
42282;SDS011;28237;47.954;21.730;2022-09-12T00:27:05;2.27;;;1.53;;
42282;SDS011;28237;47.954;21.730;2022-09-12T00:29:30;2.13;;;1.67;;
42282;SDS011;28237;47.954;21.730;2022-09-12T00:31:56;3.15;;;1.92;;
42282;SDS011;28237;47.954;21.730;2022-09-12T00:34:21;3.40;;;1.45;;
42282;SDS011;28237;47.954;21.730;2022-09-12T00:36:46;3.70;;;1.75;;
42282;SDS011;28237;47.954;21.730;2022-09-12T00:39:13;3.60;;;2.23;;
42282;SDS011;28237;47.954;21.730;2022-09-12T00:41:39;2.15;;;1.67;;
42282;SDS011;28237;47.954;21.730;2022-09-12T00:46:38;3.35;;;1.90;;
42282;SDS011;28237;47.954;21.730;2022-09-12T00:51:31;2.28;;;2.08;;
42282;SDS011;28237;47.954;21.730;2022-09-12T00:53:57;2.20;;;2.08;;
42282;SDS011;28237;47.954;21.730;2022-09-12T00:56:24;2.25;;;2.05;;
42282;SDS011;28237;47.954;21.730;2022-09-12T00:58:59;3.53;;;2.10;;
42282;SDS011;28237;47.954;21.730;2022-09-12T01:01:26;5.22;;;1.80;;
42282;SDS011;28237;47.954;21.730;2022-09-12T01:03:51;3.03;;;2.13;;
42282;SDS011;28237;47.954;21.730;2022-09-12T01:06:19;2.72;;;1.90;;
42282;SDS011;28237;47.954;21.730;2022-09-12T01:08:46;1.95;;;1.77;;
42282;SDS011;28237;47.954;21.730;2022-09-12T01:11:11;3.00;;;2.20;;
42282;SDS011;28237;47.954;21.730;2022-09-12T01:13:37;5.70;;;2.95;;
42282;SDS011;28237;47.954;21.730;2022-09-12T01:16:03;3.03;;;2.45;;
42282;SDS011;28237;47.954;21.730;2022-09-12T01:21:14;2.17;;;1.95;;
42282;SDS011;28237;47.954;21.730;2022-09-12T01:34:23;5.68;;;2.45;;
42282;SDS011;28237;47.954;21.730;2022-09-12T01:39:26;3.10;;;2.70;;
42282;SDS011;28237;47.954;21.730;2022-09-12T01:47:29;5.93;;;2.40;;
42282;SDS011;28237;47.954;21.730;2022-09-12T01:50:03;2.88;;;2.53;;
42282;SDS011;28237;47.954;21.730;2022-09-12T01:55:12;2.65;;;2.30;;
42282;SDS011;28237;47.954;21.730;2022-09-12T01:57:44;3.10;;;2.47;;
42282;SDS011;28237;47.954;21.730;2022-09-12T02:00:11;2.45;;;2.25;;
42282;SDS011;28237;47.954;21.730;2022-09-12T02:02:38;3.03;;;2.22;;
42282;SDS011;28237;47.954;21.730;2022-09-12T02:05:06;5.35;;;2.60;;
42282;SDS011;28237;47.954;21.730;2022-09-12T02:07:35;3.78;;;2.55;;
42282;SDS011;28237;47.954;21.730;2022-09-12T02:10:03;5.85;;;2.90;;
42282;SDS011;28237;47.954;21.730;2022-09-12T02:12:30;3.08;;;2.63;;
42282;SDS011;28237;47.954;21.730;2022-09-12T02:15:02;2.55;;;2.35;;
42282;SDS011;28237;47.954;21.730;2022-09-12T02:17:28;3.22;;;2.22;;
42282;SDS011;28237;47.954;21.730;2022-09-12T02:19:59;3.75;;;2.45;;
42282;SDS011;28237;47.954;21.730;2022-09-12T02:22:26;3.92;;;3.03;;
42282;SDS011;28237;47.954;21.730;2022-09-12T02:24:54;2.78;;;2.53;;
42282;SDS011;28237;47.954;21.730;2022-09-12T02:30:05;3.40;;;2.53;;
42282;SDS011;28237;47.954;21.730;2022-09-12T02:34:58;3.63;;;2.90;;
42282;SDS011;28237;47.954;21.730;2022-09-12T02:39:51;8.70;;;2.20;;
42282;SDS011;28237;47.954;21.730;2022-09-12T02:42:19;4.93;;;2.55;;
42282;SDS011;28237;47.954;21.730;2022-09-12T02:44:44;4.13;;;2.20;;
42282;SDS011;28237;47.954;21.730;2022-09-12T02:47:11;3.88;;;2.45;;
42282;SDS011;28237;47.954;21.730;2022-09-12T02:49:37;2.88;;;2.67;;
42282;SDS011;28237;47.954;21.730;2022-09-12T02:52:02;3.28;;;2.75;;
42282;SDS011;28237;47.954;21.730;2022-09-12T02:54:28;3.03;;;2.50;;
42282;SDS011;28237;47.954;21.730;2022-09-12T02:56:53;4.50;;;2.45;;
42282;SDS011;28237;47.954;21.730;2022-09-12T02:59:19;4.07;;;3.03;;
42282;SDS011;28237;47.954;21.730;2022-09-12T03:01:49;4.32;;;3.08;;
42282;SDS011;28237;47.954;21.730;2022-09-12T03:09:44;3.70;;;2.95;;
42282;SDS011;28237;47.954;21.730;2022-09-12T03:14:48;3.72;;;2.65;;
42282;SDS011;28237;47.954;21.730;2022-09-12T03:17:30;2.80;;;2.22;;
42282;SDS011;28237;47.954;21.730;2022-09-12T03:20:00;5.25;;;2.75;;
42282;SDS011;28237;47.954;21.730;2022-09-12T03:22:31;5.07;;;2.70;;
42282;SDS011;28237;47.954;21.730;2022-09-12T03:27:33;2.83;;;2.50;;
42282;SDS011;28237;47.954;21.730;2022-09-12T03:30:00;8.35;;;3.00;;
42282;SDS011;28237;47.954;21.730;2022-09-12T03:32:42;4.22;;;2.90;;
42282;SDS011;28237;47.954;21.730;2022-09-12T03:35:08;6.90;;;2.80;;
42282;SDS011;28237;47.954;21.730;2022-09-12T03:37:34;3.28;;;2.53;;
42282;SDS011;28237;47.954;21.730;2022-09-12T03:39:59;3.63;;;2.97;;
42282;SDS011;28237;47.954;21.730;2022-09-12T03:42:25;3.80;;;2.80;;
42282;SDS011;28237;47.954;21.730;2022-09-12T03:44:50;6.40;;;2.90;;
42282;SDS011;28237;47.954;21.730;2022-09-12T03:47:15;3.67;;;3.17;;
42282;SDS011;28237;47.954;21.730;2022-09-12T03:49:40;4.00;;;3.03;;
42282;SDS011;28237;47.954;21.730;2022-09-12T03:52:06;3.08;;;2.70;;
42282;SDS011;28237;47.954;21.730;2022-09-12T03:54:31;3.15;;;2.80;;
42282;SDS011;28237;47.954;21.730;2022-09-12T03:56:57;3.40;;;3.10;;
42282;SDS011;28237;47.954;21.730;2022-09-12T03:59:22;3.77;;;2.23;;
42282;SDS011;28237;47.954;21.730;2022-09-12T04:01:47;6.85;;;2.45;;
42282;SDS011;28237;47.954;21.730;2022-09-12T04:04:12;3.50;;;3.00;;
42282;SDS011;28237;47.954;21.730;2022-09-12T04:06:41;2.63;;;2.42;;
42282;SDS011;28237;47.954;21.730;2022-09-12T04:09:07;5.85;;;3.10;;
42282;SDS011;28237;47.954;21.730;2022-09-12T04:11:32;5.10;;;3.40;;
42282;SDS011;28237;47.954;21.730;2022-09-12T04:13:57;4.18;;;3.50;;
42282;SDS011;28237;47.954;21.730;2022-09-12T04:16:23;4.68;;;3.80;;
42282;SDS011;28237;47.954;21.730;2022-09-12T04:18:49;4.68;;;3.47;;
42282;SDS011;28237;47.954;21.730;2022-09-12T04:21:16;5.18;;;3.33;;
42282;SDS011;28237;47.954;21.730;2022-09-12T04:23:41;4.43;;;3.30;;
42282;SDS011;28237;47.954;21.730;2022-09-12T04:26:07;5.78;;;3.72;;
42282;SDS011;28237;47.954;21.730;2022-09-12T04:28:33;3.88;;;3.50;;
42282;SDS011;28237;47.954;21.730;2022-09-12T04:31:06;5.45;;;3.35;;
42282;SDS011;28237;47.954;21.730;2022-09-12T04:33:32;5.82;;;3.97;;
42282;SDS011;28237;47.954;21.730;2022-09-12T04:36:01;7.10;;;3.97;;
42282;SDS011;28237;47.954;21.730;2022-09-12T04:38:27;10.02;;;5.43;;
42282;SDS011;28237;47.954;21.730;2022-09-12T04:40:53;6.18;;;4.72;;
42282;SDS011;28237;47.954;21.730;2022-09-12T04:43:18;7.53;;;4.72;;
42282;SDS011;28237;47.954;21.730;2022-09-12T04:45:43;4.33;;;3.70;;
42282;SDS011;28237;47.954;21.730;2022-09-12T04:48:08;4.75;;;4.30;;
42282;SDS011;28237;47.954;21.730;2022-09-12T04:50:34;6.83;;;5.57;;
42282;SDS011;28237;47.954;21.730;2022-09-12T04:52:59;5.60;;;5.00;;
42282;SDS011;28237;47.954;21.730;2022-09-12T04:55:24;7.63;;;4.67;;
42282;SDS011;28237;47.954;21.730;2022-09-12T04:57:50;3.83;;;3.53;;
42282;SDS011;28237;47.954;21.730;2022-09-12T05:00:16;4.78;;;3.67;;
42282;SDS011;28237;47.954;21.730;2022-09-12T05:02:41;12.00;;;7.35;;
42282;SDS011;28237;47.954;21.730;2022-09-12T05:05:07;11.97;;;8.30;;
42282;SDS011;28237;47.954;21.730;2022-09-12T05:07:33;7.32;;;5.35;;
42282;SDS011;28237;47.954;21.730;2022-09-12T05:09:58;4.97;;;4.47;;
42282;SDS011;28237;47.954;21.730;2022-09-12T05:12:24;4.45;;;3.65;;
42282;SDS011;28237;47.954;21.730;2022-09-12T05:14:49;4.85;;;4.00;;
42282;SDS011;28237;47.954;21.730;2022-09-12T05:17:15;4.40;;;4.00;;
42282;SDS011;28237;47.954;21.730;2022-09-12T05:19:41;7.70;;;4.38;;
42282;SDS011;28237;47.954;21.730;2022-09-12T05:22:06;7.20;;;3.70;;
42282;SDS011;28237;47.954;21.730;2022-09-12T05:24:31;3.78;;;3.47;;
42282;SDS011;28237;47.954;21.730;2022-09-12T05:26:57;6.47;;;4.07;;
42282;SDS011;28237;47.954;21.730;2022-09-12T05:29:22;9.38;;;6.05;;
42282;SDS011;28237;47.954;21.730;2022-09-12T05:31:49;7.45;;;6.03;;
42282;SDS011;28237;47.954;21.730;2022-09-12T05:34:16;9.93;;;5.68;;
42282;SDS011;28237;47.954;21.730;2022-09-12T05:36:41;6.45;;;4.05;;
42282;SDS011;28237;47.954;21.730;2022-09-12T05:39:06;4.63;;;3.43;;
42282;SDS011;28237;47.954;21.730;2022-09-12T05:41:32;5.18;;;3.50;;
42282;SDS011;28237;47.954;21.730;2022-09-12T05:44:02;4.07;;;3.35;;
42282;SDS011;28237;47.954;21.730;2022-09-12T05:46:29;15.10;;;8.80;;
42282;SDS011;28237;47.954;21.730;2022-09-12T05:48:55;6.90;;;6.15;;
42282;SDS011;28237;47.954;21.730;2022-09-12T05:51:26;3.58;;;3.20;;
42282;SDS011;28237;47.954;21.730;2022-09-12T05:53:53;2.90;;;2.70;;
42282;SDS011;28237;47.954;21.730;2022-09-12T05:56:20;4.10;;;2.80;;
42282;SDS011;28237;47.954;21.730;2022-09-12T05:58:54;4.90;;;3.22;;
42282;SDS011;28237;47.954;21.730;2022-09-12T06:01:20;3.28;;;2.50;;
42282;SDS011;28237;47.954;21.730;2022-09-12T06:03:46;4.63;;;2.90;;
42282;SDS011;28237;47.954;21.730;2022-09-12T06:06:12;4.53;;;2.45;;
42282;SDS011;28237;47.954;21.730;2022-09-12T06:08:38;2.00;;;1.80;;
42282;SDS011;28237;47.954;21.730;2022-09-12T06:11:04;3.70;;;2.10;;
42282;SDS011;28237;47.954;21.730;2022-09-12T06:13:33;1.83;;;1.73;;
42282;SDS011;28237;47.954;21.730;2022-09-12T06:16:06;4.93;;;1.77;;
42282;SDS011;28237;47.954;21.730;2022-09-12T06:18:32;2.15;;;1.42;;
42282;SDS011;28237;47.954;21.730;2022-09-12T06:21:01;2.25;;;2.08;;
42282;SDS011;28237;47.954;21.730;2022-09-12T06:23:26;3.63;;;1.73;;
42282;SDS011;28237;47.954;21.730;2022-09-12T06:25:51;2.85;;;2.13;;
42282;SDS011;28237;47.954;21.730;2022-09-12T06:28:16;4.55;;;2.50;;
42282;SDS011;28237;47.954;21.730;2022-09-12T06:30:42;2.13;;;1.43;;
42282;SDS011;28237;47.954;21.730;2022-09-12T06:33:07;5.90;;;1.60;;
42282;SDS011;28237;47.954;21.730;2022-09-12T06:35:36;3.90;;;1.38;;
42282;SDS011;28237;47.954;21.730;2022-09-12T06:38:02;3.88;;;1.33;;
42282;SDS011;28237;47.954;21.730;2022-09-12T06:40:27;2.20;;;1.45;;
42282;SDS011;28237;47.954;21.730;2022-09-12T06:42:53;1.35;;;1.05;;
42282;SDS011;28237;47.954;21.730;2022-09-12T06:45:18;3.83;;;1.23;;
42282;SDS011;28237;47.954;21.730;2022-09-12T06:47:44;1.10;;;1.00;;
42282;SDS011;28237;47.954;21.730;2022-09-12T06:50:10;5.23;;;2.17;;
42282;SDS011;28237;47.954;21.730;2022-09-12T06:52:35;2.27;;;1.80;;
42282;SDS011;28237;47.954;21.730;2022-09-12T06:55:00;2.08;;;1.88;;
42282;SDS011;28237;47.954;21.730;2022-09-12T06:57:26;1.97;;;1.37;;
42282;SDS011;28237;47.954;21.730;2022-09-12T06:59:54;1.88;;;1.08;;
42282;SDS011;28237;47.954;21.730;2022-09-12T07:02:19;3.45;;;1.42;;
42282;SDS011;28237;47.954;21.730;2022-09-12T07:04:44;1.08;;;1.00;;
42282;SDS011;28237;47.954;21.730;2022-09-12T07:07:10;3.10;;;1.17;;
42282;SDS011;28237;47.954;21.730;2022-09-12T07:09:35;1.50;;;1.33;;
42282;SDS011;28237;47.954;21.730;2022-09-12T07:12:00;1.83;;;1.37;;
42282;SDS011;28237;47.954;21.730;2022-09-12T07:14:28;1.98;;;1.17;;
42282;SDS011;28237;47.954;21.730;2022-09-12T07:16:53;4.87;;;1.30;;
42282;SDS011;28237;47.954;21.730;2022-09-12T07:19:18;1.60;;;1.05;;
42282;SDS011;28237;47.954;21.730;2022-09-12T07:21:44;5.85;;;1.40;;
42282;SDS011;28237;47.954;21.730;2022-09-12T07:24:09;3.92;;;1.70;;
42282;SDS011;28237;47.954;21.730;2022-09-12T07:26:35;8.68;;;1.88;;
42282;SDS011;28237;47.954;21.730;2022-09-12T07:29:00;1.70;;;1.60;;
42282;SDS011;28237;47.954;21.730;2022-09-12T07:31:26;2.05;;;1.73;;
42282;SDS011;28237;47.954;21.730;2022-09-12T07:33:52;2.90;;;1.65;;
42282;SDS011;28237;47.954;21.730;2022-09-12T07:36:18;5.70;;;3.67;;
42282;SDS011;28237;47.954;21.730;2022-09-12T07:38:44;2.50;;;1.60;;
42282;SDS011;28237;47.954;21.730;2022-09-12T07:41:13;4.80;;;1.42;;
42282;SDS011;28237;47.954;21.730;2022-09-12T07:43:39;3.35;;;1.70;;
42282;SDS011;28237;47.954;21.730;2022-09-12T07:46:05;3.33;;;1.50;;
42282;SDS011;28237;47.954;21.730;2022-09-12T07:48:31;2.03;;;1.83;;
42282;SDS011;28237;47.954;21.730;2022-09-12T07:50:58;1.20;;;1.10;;
42282;SDS011;28237;47.954;21.730;2022-09-12T07:53:24;1.88;;;1.52;;
42282;SDS011;28237;47.954;21.730;2022-09-12T07:55:55;2.13;;;1.17;;
42282;SDS011;28237;47.954;21.730;2022-09-12T07:58:20;1.52;;;1.17;;
42282;SDS011;28237;47.954;21.730;2022-09-12T08:00:46;2.88;;;0.80;;
42282;SDS011;28237;47.954;21.730;2022-09-12T08:03:11;1.80;;;1.20;;
42282;SDS011;28237;47.954;21.730;2022-09-12T08:05:36;1.50;;;1.27;;
42282;SDS011;28237;47.954;21.730;2022-09-12T08:08:01;1.65;;;1.55;;
42282;SDS011;28237;47.954;21.730;2022-09-12T08:10:27;2.08;;;1.15;;
42282;SDS011;28237;47.954;21.730;2022-09-12T08:12:52;2.53;;;1.63;;
42282;SDS011;28237;47.954;21.730;2022-09-12T08:15:18;4.70;;;1.50;;
42282;SDS011;28237;47.954;21.730;2022-09-12T08:17:44;2.65;;;1.40;;
42282;SDS011;28237;47.954;21.730;2022-09-12T08:20:09;2.10;;;1.55;;
42282;SDS011;28237;47.954;21.730;2022-09-12T08:22:36;2.83;;;1.70;;
42282;SDS011;28237;47.954;21.730;2022-09-12T08:25:01;2.60;;;1.97;;
42282;SDS011;28237;47.954;21.730;2022-09-12T08:27:26;2.80;;;2.03;;
42282;SDS011;28237;47.954;21.730;2022-09-12T08:29:51;2.40;;;2.10;;
42282;SDS011;28237;47.954;21.730;2022-09-12T08:32:17;5.53;;;1.75;;
42282;SDS011;28237;47.954;21.730;2022-09-12T08:34:43;2.92;;;1.67;;
42282;SDS011;28237;47.954;21.730;2022-09-12T08:37:08;4.87;;;1.80;;
42282;SDS011;28237;47.954;21.730;2022-09-12T08:39:33;3.43;;;1.73;;
42282;SDS011;28237;47.954;21.730;2022-09-12T08:42:02;3.50;;;1.60;;
42282;SDS011;28237;47.954;21.730;2022-09-12T08:44:30;1.90;;;1.80;;
42282;SDS011;28237;47.954;21.730;2022-09-12T08:55:26;2.90;;;1.02;;
42282;SDS011;28237;47.954;21.730;2022-09-12T08:57:52;2.40;;;1.60;;
42282;SDS011;28237;47.954;21.730;2022-09-12T09:00:18;1.60;;;1.38;;
42282;SDS011;28237;47.954;21.730;2022-09-12T09:08:43;1.98;;;0.85;;
42282;SDS011;28237;47.954;21.730;2022-09-12T09:13:41;1.92;;;1.27;;
42282;SDS011;28237;47.954;21.730;2022-09-12T09:19:30;1.67;;;1.30;;
42282;SDS011;28237;47.954;21.730;2022-09-12T09:24:35;0.93;;;0.83;;
42282;SDS011;28237;47.954;21.730;2022-09-12T09:27:13;5.00;;;1.95;;
42282;SDS011;28237;47.954;21.730;2022-09-12T09:29:42;1.60;;;1.20;;
42282;SDS011;28237;47.954;21.730;2022-09-12T09:32:14;3.28;;;0.63;;
42282;SDS011;28237;47.954;21.730;2022-09-12T09:34:41;0.93;;;0.68;;
42282;SDS011;28237;47.954;21.730;2022-09-12T09:42:25;1.13;;;0.88;;
42282;SDS011;28237;47.954;21.730;2022-09-12T09:44:52;1.10;;;0.90;;
42282;SDS011;28237;47.954;21.730;2022-09-12T09:47:17;1.02;;;0.88;;
42282;SDS011;28237;47.954;21.730;2022-09-12T09:49:43;2.67;;;0.95;;
42282;SDS011;28237;47.954;21.730;2022-09-12T09:52:09;1.58;;;0.80;;
42282;SDS011;28237;47.954;21.730;2022-09-12T09:54:43;2.38;;;0.82;;
42282;SDS011;28237;47.954;21.730;2022-09-12T09:59:54;1.08;;;0.98;;
42282;SDS011;28237;47.954;21.730;2022-09-12T10:02:20;1.00;;;0.80;;
42282;SDS011;28237;47.954;21.730;2022-09-12T10:04:54;1.52;;;1.00;;
42282;SDS011;28237;47.954;21.730;2022-09-12T10:07:19;1.08;;;0.90;;
42282;SDS011;28237;47.954;21.730;2022-09-12T10:12:29;3.42;;;1.00;;
42282;SDS011;28237;47.954;21.730;2022-09-12T10:14:58;0.93;;;0.60;;
42282;SDS011;28237;47.954;21.730;2022-09-12T10:17:38;0.73;;;0.60;;
42282;SDS011;28237;47.954;21.730;2022-09-12T10:20:04;5.25;;;0.70;;
42282;SDS011;28237;47.954;21.730;2022-09-12T10:22:45;2.53;;;0.80;;
42282;SDS011;28237;47.954;21.730;2022-09-12T10:25:14;1.58;;;0.90;;
42282;SDS011;28237;47.954;21.730;2022-09-12T10:27:42;0.82;;;0.60;;
42282;SDS011;28237;47.954;21.730;2022-09-12T10:32:39;0.90;;;0.63;;
42282;SDS011;28237;47.954;21.730;2022-09-12T10:37:39;1.17;;;0.70;;
42282;SDS011;28237;47.954;21.730;2022-09-12T10:40:06;1.13;;;0.70;;
42282;SDS011;28237;47.954;21.730;2022-09-12T10:45:52;2.30;;;0.98;;
42282;SDS011;28237;47.954;21.730;2022-09-12T10:48:24;1.15;;;0.45;;
42282;SDS011;28237;47.954;21.730;2022-09-12T10:50:48;2.00;;;0.60;;
42282;SDS011;28237;47.954;21.730;2022-09-12T10:53:27;7.40;;;4.65;;
42282;SDS011;28237;47.954;21.730;2022-09-12T10:56:06;4.25;;;3.05;;
42282;SDS011;28237;47.954;21.730;2022-09-12T11:01:01;2.60;;;0.60;;
42282;SDS011;28237;47.954;21.730;2022-09-12T11:03:51;0.47;;;0.35;;
42282;SDS011;28237;47.954;21.730;2022-09-12T11:06:18;1.77;;;0.52;;
42282;SDS011;28237;47.954;21.730;2022-09-12T11:14:35;0.60;;;0.50;;
42282;SDS011;28237;47.954;21.730;2022-09-12T11:17:17;1.52;;;0.70;;
42282;SDS011;28237;47.954;21.730;2022-09-12T11:37:29;0.47;;;0.40;;
42282;SDS011;28237;47.954;21.730;2022-09-12T11:42:47;1.05;;;0.47;;
42282;SDS011;28237;47.954;21.730;2022-09-12T11:47:43;2.63;;;0.70;;
42282;SDS011;28237;47.954;21.730;2022-09-12T11:50:16;3.40;;;1.00;;
42282;SDS011;28237;47.954;21.730;2022-09-12T11:52:43;0.73;;;0.40;;
42282;SDS011;28237;47.954;21.730;2022-09-12T11:55:15;0.85;;;0.50;;
42282;SDS011;28237;47.954;21.730;2022-09-12T12:03:04;4.20;;;0.57;;
42282;SDS011;28237;47.954;21.730;2022-09-12T12:10:44;1.42;;;0.30;;
42282;SDS011;28237;47.954;21.730;2022-09-12T12:13:16;2.58;;;0.50;;
42282;SDS011;28237;47.954;21.730;2022-09-12T12:15:47;1.10;;;0.20;;
42282;SDS011;28237;47.954;21.730;2022-09-12T12:18:18;0.57;;;0.20;;
42282;SDS011;28237;47.954;21.730;2022-09-12T12:20:44;2.22;;;0.20;;
42282;SDS011;28237;47.954;21.730;2022-09-12T12:23:29;0.60;;;0.20;;
42282;SDS011;28237;47.954;21.730;2022-09-12T12:25:56;0.40;;;0.30;;
42282;SDS011;28237;47.954;21.730;2022-09-12T12:31:02;2.80;;;0.30;;
42282;SDS011;28237;47.954;21.730;2022-09-12T12:40:50;0.30;;;0.20;;
42282;SDS011;28237;47.954;21.730;2022-09-12T12:43:31;1.60;;;0.30;;
42282;SDS011;28237;47.954;21.730;2022-09-12T12:46:03;2.28;;;0.20;;
42282;SDS011;28237;47.954;21.730;2022-09-12T12:48:30;1.50;;;0.73;;
42282;SDS011;28237;47.954;21.730;2022-09-12T12:53:41;0.50;;;0.30;;
42282;SDS011;28237;47.954;21.730;2022-09-12T12:56:19;1.30;;;0.20;;
42282;SDS011;28237;47.954;21.730;2022-09-12T12:58:48;2.28;;;0.73;;
42282;SDS011;28237;47.954;21.730;2022-09-12T13:01:21;1.65;;;0.45;;
42282;SDS011;28237;47.954;21.730;2022-09-12T13:04:00;0.30;;;0.30;;
42282;SDS011;28237;47.954;21.730;2022-09-12T13:06:37;0.30;;;0.20;;
42282;SDS011;28237;47.954;21.730;2022-09-12T13:09:05;1.58;;;0.20;;
42282;SDS011;28237;47.954;21.730;2022-09-12T13:11:35;1.05;;;0.52;;
42282;SDS011;28237;47.954;21.730;2022-09-12T13:14:06;0.47;;;0.30;;
42282;SDS011;28237;47.954;21.730;2022-09-12T13:16:37;0.40;;;0.20;;
42282;SDS011;28237;47.954;21.730;2022-09-12T13:19:07;0.35;;;0.10;;
42282;SDS011;28237;47.954;21.730;2022-09-12T13:21:36;2.30;;;0.10;;
42282;SDS011;28237;47.954;21.730;2022-09-12T13:24:12;1.38;;;0.20;;
42282;SDS011;28237;47.954;21.730;2022-09-12T13:26:42;2.25;;;0.20;;
42282;SDS011;28237;47.954;21.730;2022-09-12T13:29:20;0.80;;;0.22;;
42282;SDS011;28237;47.954;21.730;2022-09-12T13:32:04;0.20;;;0.20;;
42282;SDS011;28237;47.954;21.730;2022-09-12T13:34:30;0.47;;;0.43;;
42282;SDS011;28237;47.954;21.730;2022-09-12T13:40:00;0.77;;;0.20;;
42282;SDS011;28237;47.954;21.730;2022-09-12T13:45:00;0.60;;;0.20;;
42282;SDS011;28237;47.954;21.730;2022-09-12T13:47:31;0.43;;;0.20;;
42282;SDS011;28237;47.954;21.730;2022-09-12T13:49:58;6.30;;;0.22;;
42282;SDS011;28237;47.954;21.730;2022-09-12T13:52:25;10.43;;;1.33;;
42282;SDS011;28237;47.954;21.730;2022-09-12T13:54:53;3.15;;;0.47;;
42282;SDS011;28237;47.954;21.730;2022-09-12T13:57:26;0.20;;;0.10;;
42282;SDS011;28237;47.954;21.730;2022-09-12T13:59:53;1.98;;;0.20;;
42282;SDS011;28237;47.954;21.730;2022-09-12T14:02:19;3.67;;;0.30;;
42282;SDS011;28237;47.954;21.730;2022-09-12T14:04:46;5.18;;;0.85;;
42282;SDS011;28237;47.954;21.730;2022-09-12T14:07:30;1.73;;;0.40;;
42282;SDS011;28237;47.954;21.730;2022-09-12T14:09:56;0.30;;;0.20;;
42282;SDS011;28237;47.954;21.730;2022-09-12T14:12:23;0.65;;;0.20;;
42282;SDS011;28237;47.954;21.730;2022-09-12T14:14:49;0.65;;;0.40;;
42282;SDS011;28237;47.954;21.730;2022-09-12T14:19:47;0.98;;;0.30;;
42282;SDS011;28237;47.954;21.730;2022-09-12T14:22:13;0.52;;;0.30;;
42282;SDS011;28237;47.954;21.730;2022-09-12T14:24:45;1.42;;;0.52;;
42282;SDS011;28237;47.954;21.730;2022-09-12T14:27:14;0.50;;;0.45;;
42282;SDS011;28237;47.954;21.730;2022-09-12T14:29:40;2.65;;;0.70;;
42282;SDS011;28237;47.954;21.730;2022-09-12T14:32:12;0.70;;;0.50;;
42282;SDS011;28237;47.954;21.730;2022-09-12T14:37:07;1.30;;;0.68;;
42282;SDS011;28237;47.954;21.730;2022-09-12T14:39:36;1.85;;;0.50;;
42282;SDS011;28237;47.954;21.730;2022-09-12T14:44:34;0.82;;;0.40;;
42282;SDS011;28237;47.954;21.730;2022-09-12T14:47:09;1.20;;;0.55;;
42282;SDS011;28237;47.954;21.730;2022-09-12T14:49:35;1.48;;;0.50;;
42282;SDS011;28237;47.954;21.730;2022-09-12T14:52:05;1.05;;;0.45;;
42282;SDS011;28237;47.954;21.730;2022-09-12T14:56:58;3.53;;;0.63;;
42282;SDS011;28237;47.954;21.730;2022-09-12T15:04:39;0.73;;;0.52;;
42282;SDS011;28237;47.954;21.730;2022-09-12T15:09:49;2.35;;;0.60;;
42282;SDS011;28237;47.954;21.730;2022-09-12T15:12:14;2.05;;;0.70;;
42282;SDS011;28237;47.954;21.730;2022-09-12T15:14:40;1.10;;;0.75;;
42282;SDS011;28237;47.954;21.730;2022-09-12T15:17:05;1.60;;;0.50;;
42282;SDS011;28237;47.954;21.730;2022-09-12T15:19:30;1.93;;;0.87;;
42282;SDS011;28237;47.954;21.730;2022-09-12T15:21:55;0.90;;;0.60;;
42282;SDS011;28237;47.954;21.730;2022-09-12T15:24:21;0.52;;;0.52;;
42282;SDS011;28237;47.954;21.730;2022-09-12T15:26:46;4.20;;;0.80;;
42282;SDS011;28237;47.954;21.730;2022-09-12T15:29:11;1.03;;;0.57;;
42282;SDS011;28237;47.954;21.730;2022-09-12T15:31:37;1.03;;;0.63;;
42282;SDS011;28237;47.954;21.730;2022-09-12T15:34:03;2.15;;;0.68;;
42282;SDS011;28237;47.954;21.730;2022-09-12T15:36:28;1.97;;;0.50;;
42282;SDS011;28237;47.954;21.730;2022-09-12T15:38:54;1.05;;;0.80;;
42282;SDS011;28237;47.954;21.730;2022-09-12T15:43:51;0.47;;;0.45;;
42282;SDS011;28237;47.954;21.730;2022-09-12T15:46:16;1.77;;;0.50;;
42282;SDS011;28237;47.954;21.730;2022-09-12T15:48:43;0.77;;;0.50;;
42282;SDS011;28237;47.954;21.730;2022-09-12T15:51:12;2.53;;;0.50;;
42282;SDS011;28237;47.954;21.730;2022-09-12T15:53:37;1.38;;;0.40;;
42282;SDS011;28237;47.954;21.730;2022-09-12T15:56:03;0.55;;;0.43;;
42282;SDS011;28237;47.954;21.730;2022-09-12T15:58:28;0.65;;;0.32;;
42282;SDS011;28237;47.954;21.730;2022-09-12T16:00:53;0.40;;;0.27;;
42282;SDS011;28237;47.954;21.730;2022-09-12T16:03:23;2.07;;;0.60;;
42282;SDS011;28237;47.954;21.730;2022-09-12T16:05:49;3.70;;;0.60;;
42282;SDS011;28237;47.954;21.730;2022-09-12T16:08:14;1.17;;;0.80;;
42282;SDS011;28237;47.954;21.730;2022-09-12T16:10:40;0.67;;;0.40;;
42282;SDS011;28237;47.954;21.730;2022-09-12T16:13:07;2.08;;;0.40;;
42282;SDS011;28237;47.954;21.730;2022-09-12T16:15:32;2.87;;;1.07;;
42282;SDS011;28237;47.954;21.730;2022-09-12T16:17:57;0.77;;;0.67;;
42282;SDS011;28237;47.954;21.730;2022-09-12T16:20:22;0.63;;;0.50;;
42282;SDS011;28237;47.954;21.730;2022-09-12T16:22:49;3.28;;;0.90;;
42282;SDS011;28237;47.954;21.730;2022-09-12T16:25:14;1.65;;;0.65;;
42282;SDS011;28237;47.954;21.730;2022-09-12T16:27:39;2.08;;;0.60;;
42282;SDS011;28237;47.954;21.730;2022-09-12T16:30:05;1.77;;;0.60;;
42282;SDS011;28237;47.954;21.730;2022-09-12T16:32:31;1.08;;;0.57;;
42282;SDS011;28237;47.954;21.730;2022-09-12T16:34:56;2.20;;;0.43;;
42282;SDS011;28237;47.954;21.730;2022-09-12T16:37:21;1.75;;;0.57;;
42282;SDS011;28237;47.954;21.730;2022-09-12T16:39:47;2.95;;;0.77;;
42282;SDS011;28237;47.954;21.730;2022-09-12T16:42:13;1.10;;;0.60;;
42282;SDS011;28237;47.954;21.730;2022-09-12T16:44:38;1.02;;;0.60;;
42282;SDS011;28237;47.954;21.730;2022-09-12T16:47:04;1.88;;;0.60;;
42282;SDS011;28237;47.954;21.730;2022-09-12T16:49:29;0.82;;;0.57;;
42282;SDS011;28237;47.954;21.730;2022-09-12T16:51:54;1.33;;;0.90;;
42282;SDS011;28237;47.954;21.730;2022-09-12T16:54:19;3.50;;;0.93;;
42282;SDS011;28237;47.954;21.730;2022-09-12T16:56:45;0.90;;;0.67;;
42282;SDS011;28237;47.954;21.730;2022-09-12T16:59:10;1.23;;;0.50;;
42282;SDS011;28237;47.954;21.730;2022-09-12T17:01:40;1.38;;;0.80;;
42282;SDS011;28237;47.954;21.730;2022-09-12T17:04:05;3.72;;;1.35;;
42282;SDS011;28237;47.954;21.730;2022-09-12T17:06:31;1.60;;;0.70;;
42282;SDS011;28237;47.954;21.730;2022-09-12T17:08:57;1.00;;;0.40;;
42282;SDS011;28237;47.954;21.730;2022-09-12T17:11:29;1.67;;;0.73;;
42282;SDS011;28237;47.954;21.730;2022-09-12T17:13:55;3.38;;;1.05;;
42282;SDS011;28237;47.954;21.730;2022-09-12T17:16:21;2.13;;;0.98;;
42282;SDS011;28237;47.954;21.730;2022-09-12T17:18:47;1.80;;;0.75;;
42282;SDS011;28237;47.954;21.730;2022-09-12T17:21:12;2.63;;;1.10;;
42282;SDS011;28237;47.954;21.730;2022-09-12T17:23:38;0.95;;;0.80;;